• Join FlightAware (Why Join?)
  • Login
  • US Flag 
08:14AM EDT


 

Airport Tracker/Info


-or-


 

Live Flight TrackerFlight Track Log ✈ EGF3773 ✈ 25-Apr-2013 ✈ KDEN - KORD

Flight Track Log - Related Links

Times and Time Zones

All times are in EDT time to prevent confusion due to time zone crossing. See the EGF3773 flight status page for this flight to view local times or setup timezone preferences in your user account.

Time Position Orientation Groundspeed Altitude Reporting Facility
EDT Latitude Longitude Course Direction KTS MPH feet Rate Location/Type
08:18PM 39.8833 -104.5500 79° East 201 231 7,600  Level Denver TRACON
08:19PM 39.9000 -104.4667 75° East 277 319 9,400 1,560 Climbing Denver TRACON
08:20PM 39.9363 -104.1820 73° East  Level FlightAware Approximate
08:21PM 39.9667 -104.0214 90° East  Level FlightAware Approximate
08:21PM 39.9356 -104.3206 72° East 341 392 11,100  Level Denver Center
08:22PM 39.9937 -103.8606 79° East  Level FlightAware Approximate
08:22PM 39.9656 -104.1833 74° East 391 450 12,700  Level Denver Center
08:23PM 40.0262 -103.7004 79° East  Level FlightAware Approximate
08:23PM 39.9850 -104.0369 80° East 411 473 14,900  Level Denver Center
08:24PM 40.0482 -103.5457 79° East  Level FlightAware Approximate
08:24PM 40.0019 -103.8778 82° East 415 478 17,200  Level Denver Center
08:25PM 40.0267 -103.7267 78° East 433 498 18,500 1,440 Climbing Denver Center
08:26PM 40.0542 -103.5675 77° East 449 517 20,200 1,560 Climbing Denver Center
08:27PM 40.0819 -103.3994 78° East 469 540 21,800 1,500 Climbing Denver Center
08:28PM 40.1097 -103.2303 78° East 472 543 23,400 1,500 Climbing Denver Center
08:29PM 40.1417 -103.0286 78° East 480 552 24,900 1,200 Climbing Denver Center
08:30PM 40.1678 -102.8506 79° East 492 566 25,900 960 Climbing Denver Center
08:31PM 40.1953 -102.6786 78° East 504 580 27,000 1,200 Climbing Denver Center
08:32PM 40.2264 -102.4778 78° East 506 582 28,500 1,260 Climbing Denver Center
08:33PM 40.2533 -102.3050 78° East 506 582 29,700 960 Climbing Denver Center
08:34PM 40.2742 -102.1600 79° East 508 585 30,500 1,020 Climbing Denver Center
08:35PM 40.3097 -101.9258 79° East 514 592 31,800 1,140 Climbing Denver Center
08:36PM 40.3406 -101.7189 79° East 516 594 32,900 540 Climbing Denver Center
08:37PM 40.3658 -101.5397 79° East 522 601 33,000 540 Climbing Denver Center
08:38PM 40.3925 -101.3583 79° East 529 609 34,100 1,020 Climbing Denver Center
08:39PM 40.4225 -101.1489 79° East 526 605 35,200 960 Climbing Denver Center
08:40PM 40.4469 -100.9714 80° East 521 600 36,200 840 Climbing Denver Center
08:41PM 40.4978 -100.8047 68° East 520 598 37,000 360 Climbing Denver Center
08:42PM 40.5589 -100.6433 63° Northeast 520 598 37,000  Level Denver Center
08:43PM 40.6386 -100.4256 64° Northeast 523 602 37,000  Level Denver Center
08:44PM 40.6992 -100.2611 64° Northeast 526 605 37,000  Level Denver Center
08:45PM 40.7692 -100.0694 64° Northeast 523 602 37,000  Level Denver Center
08:47PM 40.8303 -99.9017 64° Northeast 531 611 37,000  Level Denver Center
08:48PM 40.9069 -99.6897 64° Northeast 525 604 37,000  Level Denver Center
08:49PM 40.9700 -99.5147 64° Northeast 526 605 37,000  Level Denver Center
08:50PM 41.0325 -99.3392 65° Northeast 525 604 37,000  Level Denver Center
08:51PM 41.1186 -99.0942 65° Northeast 526 605 37,000  Level Denver Center
08:51PM 41.1433 -99.0244 65° Northeast 527 606 37,000  Level Minneapolis Center
08:52PM 41.1675 -98.9536 66° East 526 605 37,000  Level Denver Center
08:52PM 41.2044 -98.8494 65° Northeast 526 605 37,000  Level Minneapolis Center
08:53PM 41.2550 -98.7075 65° Northeast 527 606 37,000  Level Minneapolis Center
08:54PM 41.3261 -98.4967 66° East 524 603 37,000  Level Minneapolis Center
08:55PM 41.3586 -98.2856 78° East 529 609 37,000  Level Minneapolis Center
08:56PM 41.3847 -98.1339 77° East 525 604 37,000  Level Minneapolis Center
08:58PM 41.4269 -97.8881 77° East 526 605 37,000  Level Minneapolis Center
08:59PM 41.4656 -97.6600 77° East 526 605 37,000  Level Minneapolis Center
09:00PM 41.4978 -97.4681 77° East 528 608 37,000  Level Minneapolis Center
09:01PM 41.5289 -97.2761 78° East 529 609 37,000  Level Minneapolis Center
09:02PM 41.5594 -97.0850 78° East 527 606 37,000  Level Minneapolis Center
09:03PM 41.5978 -96.8536 77° East 530 610 37,000  Level Minneapolis Center
09:04PM 41.6278 -96.6592 78° East 531 611 37,000  Level Minneapolis Center
09:05PM 41.6644 -96.4253 78° East 533 613 37,000  Level Minneapolis Center
09:06PM 41.6944 -96.2297 78° East 532 612 37,000  Level Minneapolis Center
09:07PM 41.7244 -96.0336 78° East 532 612 37,000  Level Minneapolis Center
09:08PM 41.7550 -95.8375 78° East 533 613 37,000  Level Minneapolis Center
09:09PM 41.7836 -95.6414 79° East 534 615 37,000  Level Minneapolis Center
09:10PM 41.8117 -95.4442 79° East 536 617 37,000  Level Minneapolis Center
09:11PM 41.8458 -95.2103 79° East 532 612 37,000  Level Minneapolis Center
09:12PM 41.8739 -95.0158 79° East 530 610 37,000  Level Minneapolis Center
09:13PM 41.9017 -94.8172 79° East 538 619 37,000  Level Minneapolis Center
09:15PM 41.9283 -94.6194 80° East 538 619 37,000  Level Minneapolis Center
09:16PM 41.9608 -94.3822 79° East 538 619 37,000  Level Minneapolis Center
09:17PM 41.9875 -94.1831 80° East 540 621 37,000  Level Minneapolis Center
09:18PM 42.0147 -93.9814 80° East 547 629 37,000  Level Minneapolis Center
09:19PM 42.0428 -93.7769 79° East 541 623 37,000  Level Minneapolis Center
09:20PM 42.0739 -93.5400 80° East 541 623 37,000  Level Minneapolis Center
09:21PM 42.0989 -93.3447 80° East 535 616 37,000  Level Minneapolis Center
09:22PM 42.1236 -93.1503 80° East 535 616 37,000  Level Minneapolis Center
09:23PM 42.1478 -92.9544 80° East 535 616 37,000 -420 Level Minneapolis Center
09:24PM 42.1711 -92.7628 81° East 527 606 36,200 -1,020 Descending Minneapolis Center
09:25PM 42.1989 -92.5356 81° East 520 598 35,000 -780 Descending Minneapolis Center
09:26PM 42.2219 -92.3417 81° East 525 604 34,600 -720 Descending Minneapolis Center
09:27PM 42.2439 -92.1503 81° East 526 605 33,600 -900 Descending Minneapolis Center
09:28PM 42.2619 -91.9994 81° East 520 598 32,800 -1,260 Descending Minneapolis Center
09:29PM 42.2914 -91.7344 81° East 515 593 31,000 -1,560 Descending Chicago Center
09:30PM 42.3128 -91.5453 81° East 518 596 29,600 -960 Descending Chicago Center
09:31PM 42.3319 -91.3614 82° East 506 582 29,000 -300 Descending Chicago Center
09:32PM 42.3511 -91.1786 82° East 501 577 29,000  Level Chicago Center
09:33PM 42.3761 -90.9547 81° East 507 583 29,000  Level Chicago Center
09:34PM 42.3956 -90.7664 82° East 511 588 29,000 -300 Level Chicago Center
09:35PM 42.4158 -90.5775 82° East 515 593 28,400 -900 Descending Chicago Center
09:36PM 42.4333 -90.3939 83° East 499 574 27,200 -1,440 Descending Chicago Center
09:37PM 42.4517 -90.2131 82° East 490 564 25,500 -1,920 Descending Chicago Center
09:38PM 42.4742 -89.9903 82° East 501 577 23,300 -1,980 Descending Chicago Center
09:40PM 42.4722 -89.7958 91° East 481 554 21,500 -1,800 Descending Chicago Center
09:41PM 42.4592 -89.6150 96° East 483 556 19,700 -1,740 Descending Chicago Center
09:42PM 42.4472 -89.4411 95° East 469 540 18,000 -1,560 Descending Chicago Center
09:43PM 42.4353 -89.2761 96° East 450 518 16,600 -1,560 Descending Chicago Center
09:44PM 42.4225 -89.1114 96° East 444 511 14,900 -1,680 Descending Chicago Center
09:45PM 42.4106 -88.9497 96° East 437 503 13,200 -1,560 Descending Chicago Center
09:46PM 42.3950 -88.7661 96° East 425 489 11,700 -1,260 Descending Chicago Center
09:47PM 42.3836 -88.6144 96° East 410 472 10,600 -840 Descending Chicago Center
09:48PM 42.3661 -88.4694 99° East 400 460 10,000 -300 Descending Chicago Center
09:49PM 42.3225 -88.3569 118° Southeast 373 429 10,000  Level Chicago Center
09:50PM 42.2419 -88.2250 129° Southeast 380 437 10,000 -240 Level Chicago Center
09:51PM 42.1792 -88.1258 130° Southeast 356 410 9,600 -840 Descending Chicago Center
09:52PM 42.1167 -88.0500 138° Southeast 311 358 8,400 -1,200 Descending Chicago TRACON
09:53PM 42.1000 -87.9500 103° East 293 337 7,300 -720 Descending Chicago TRACON
09:54PM 42.1000 -87.8500 90° East 242 278 7,000 -240 Descending Chicago TRACON
09:55PM 42.0833 -87.7833 109° East 220 253 6,900 -600 Descending Chicago TRACON
09:56PM 42.1000 -87.7000 75° East 205 236 5,800 -1,080 Descending Chicago TRACON
09:57PM 42.0667 -87.6333 124° Southeast 206 237 4,800 -1,140 Descending Chicago TRACON
09:58PM 42.0333 -87.6833 228° Southwest 178 205 3,600 -960 Descending Chicago TRACON
09:59PM 42.0167 -87.7333 246° West 178 205 2,900 -720 Descending Chicago TRACON